Blue Bay — V2CE6 — position and weather

sailwx.info

Track history (hours):
 
Tides and Currents Weather Stations Pressure Air Temp Water Temp Dewpoint Dewpoint Depression Visibility Wind Speed Wind Dir Waves Ship Positions

Blue Bay

Last reported at 2017-Mar-27 11:33 UTC. Time now 2017-Mar-27 12:30 UTC.
Position N 59°53' E 010°45'.

Length 89 m; draft 4.8 m.

Type: Cargo ship. MMSI: 304519000.

Date/timePositionNaut miles runAvg speedWind from/ knotsBaromVisibWave heightAir tempDewpointWater temp
2017-Mar-27 11:33N 59°53' E 010°45'0 0.0
2017-Mar-27 10:33N 59°53' E 010°45'0 0.0
2017-Mar-27 09:33N 59°53' E 010°45'0 0.0
2017-Mar-27 08:33N 59°53' E 010°45'0 0.0
2017-Mar-27 07:33N 59°53' E 010°45'0 0.0
2017-Mar-27 06:33N 59°53' E 010°45'0 0.0
2017-Mar-27 05:33N 59°53' E 010°45'0 0.0
2017-Mar-27 04:33N 59°53' E 010°45'1 0.9
2017-Mar-27 03:33N 59°53' E 010°44'9 9.1
2017-Mar-27 02:34N 59°45' E 010°35'1110.7
2017-Mar-27 01:34N 59°35' E 010°38'1110.6
2017-Mar-27 00:34N 59°24' E 010°34'1111.0
2017-Mar-26 23:33N 59°13' E 010°38'1010.1
2017-Mar-26 22:34N 59°03' E 010°34'1010.2
2017-Mar-26 21:34N 58°54' E 010°25'1010.3
2017-Mar-26 20:33N 58°45' E 010°15'1010.3
2017-Mar-26 19:33N 58°37' E 010°04'1110.6
2017-Mar-26 18:33N 58°28' E 009°54'1110.5
2017-Mar-26 17:33N 58°19' E 009°43'1110.5
2017-Mar-26 16:33N 58°10' E 009°32'1110.6
2017-Mar-26 15:33N 58°01' E 009°22'1110.6
2017-Mar-26 14:33N 57°52' E 009°12'15610.4
2017-Mar-25 23:33N 55°39' E 006°44'1010.2
2017-Mar-25 22:32N 55°30' E 006°34'1110.2
2017-Mar-25 21:29N 55°21' E 006°25'10010.1
2017-Mar-25 11:32N 53°53' E 005°00'9 9.6
2017-Mar-25 10:34N 53°45' E 004°54'9 9.5
2017-Mar-25 09:34N 53°36' E 004°49'9 9.2
2017-Mar-25 08:34N 53°27' E 004°43'10 9.5
2017-Mar-25 07:33N 53°18' E 004°36'10 9.8
2017-Mar-25 06:33N 53°10' E 004°29'1010.2
2017-Mar-25 05:34N 53°01' E 004°22'1111.0
2017-Mar-25 04:33N 52°50' E 004°15'1111.2
2017-Mar-25 03:33N 52°41' E 004°05'1111.5
2017-Mar-25 02:34N 52°31' E 003°56'1211.8
2017-Mar-25 01:33N 52°19' E 003°52'1211.6
2017-Mar-25 00:34N 52°08' E 003°56'9 9.3
2017-Mar-24 23:34N 51°60' E 004°03'1010.2
2017-Mar-24 22:33N 51°54' E 004°16'1 0.7
2017-Mar-24 21:33N 51°53' E 004°16'0 0.0
2017-Mar-24 20:33N 51°54' E 004°16'0 0.0
2017-Mar-24 19:33N 51°53' E 004°16'0 0.0
2017-Mar-24 18:33N 51°54' E 004°16'0 0.0
2017-Mar-24 17:33N 51°54' E 004°16'0 0.0
2017-Mar-24 16:33N 51°54' E 004°16'0 0.0
2017-Mar-24 15:29N 51°54' E 004°16'4 4.2
2017-Mar-24 14:33N 51°54' E 004°23'1 1.5
2017-Mar-24 13:33N 51°54' E 004°25'0 0.0
2017-Mar-24 12:33N 51°54' E 004°25'0 0.0
2017-Mar-24 11:33N 51°54' E 004°25'0 0.0
2017-Mar-24 10:33N 51°54' E 004°25'0 0.0
2017-Mar-24 09:33N 51°54' E 004°25'0 0.0
2017-Mar-24 08:33N 51°54' E 004°25'0 0.0
2017-Mar-24 07:33N 51°54' E 004°25'0 0.0
2017-Mar-24 06:33N 51°54' E 004°25'0 0.0
2017-Mar-24 05:33N 51°54' E 004°25'0 0.0
2017-Mar-24 04:33N 51°54' E 004°25'0 0.0
2017-Mar-24 03:33N 51°54' E 004°25'0 0.0
2017-Mar-24 02:33N 51°54' E 004°25'0 0.0
2017-Mar-24 01:33N 51°54' E 004°25'0 0.0
2017-Mar-24 00:33N 51°54' E 004°25'0 0.0
2017-Mar-23 23:33N 51°54' E 004°25'0 0.0
2017-Mar-23 22:33N 51°54' E 004°25'0 0.0
2017-Mar-23 21:33N 51°54' E 004°25'0 0.0
2017-Mar-23 20:33N 51°54' E 004°25'0 0.0
2017-Mar-23 19:33N 51°54' E 004°25'0 0.0
2017-Mar-23 18:33N 51°54' E 004°25'0 0.0
2017-Mar-23 17:33N 51°54' E 004°25'0 0.0
2017-Mar-23 16:33N 51°54' E 004°25'0 0.0
2017-Mar-23 15:33N 51°54' E 004°25'0 0.0
2017-Mar-23 14:33N 51°54' E 004°25'0 0.0
2017-Mar-23 13:33N 51°54' E 004°25'0 0.0
2017-Mar-23 12:33N 51°54' E 004°25'0 0.0
2017-Mar-23 11:33N 51°54' E 004°25'0 0.0
2017-Mar-23 10:33N 51°54' E 004°25'0 0.0
2017-Mar-23 09:33N 51°54' E 004°25'0 0.0
2017-Mar-23 08:33N 51°54' E 004°25'0 0.0
2017-Mar-23 07:33N 51°54' E 004°25'0 0.0
2017-Mar-23 06:33N 51°54' E 004°25'0 0.0
2017-Mar-23 05:33N 51°54' E 004°25'0 0.0
2017-Mar-23 04:33N 51°54' E 004°25'0 0.0
2017-Mar-23 03:33N 51°54' E 004°25'0 0.0
2017-Mar-23 02:33N 51°54' E 004°25'0 0.1
2017-Mar-23 01:33N 51°54' E 004°25'7 7.2
2017-Mar-23 00:33N 51°56' E 004°13'8 7.8
2017-Mar-22 23:33N 51°60' E 004°03'9 8.6
2017-Mar-22 22:33N 52°03' E 003°50'9 9.0
2017-Mar-22 21:33N 52°12' E 003°47'9 9.4
2017-Mar-22 20:33N 52°21' E 003°48'13 9.9
2017-Mar-22 19:12N 52°34' E 003°52'910.3
2017-Mar-22 18:18N 52°43' E 003°55'810.8
2017-Mar-22 17:33N 52°51' E 003°58'1110.3
2017-Mar-22 16:29N 53°01' E 004°07'143 8.4
2017-Mar-21 23:26N 54°01' E 007°45'7 8.0
2017-Mar-21 22:33N 54°01' E 007°57'8 8.3
2017-Mar-21 21:33N 54°01' E 008°11'1010.0
2017-Mar-21 20:33N 53°59' E 008°28'1010.3
2017-Mar-21 19:33N 53°53' E 008°42'9 8.8
2017-Mar-21 18:34N 53°51' E 008°57'8 7.7
2017-Mar-21 17:33N 53°54' E 009°09'4 3.6
2017-Mar-21 16:33N 53°56' E 009°13'7 7.1
2017-Mar-21 15:33N 54°03' E 009°18'46 5.8
2017-Mar-21 07:32N 54°31' E 010°21'9 9.5
2017-Mar-21 06:33N 54°34' E 010°36'10 9.7
2017-Mar-21 05:33N 54°35' E 010°52'10 9.5
2017-Mar-21 04:33N 54°36' E 011°09'9 9.4
2017-Mar-21 03:33N 54°32' E 011°24'10 9.5
2017-Mar-21 02:33N 54°29' E 011°39'9 9.2
2017-Mar-21 01:33N 54°27' E 011°54'9 8.6
2017-Mar-21 00:33N 54°28' E 012°09'9 9.0
2017-Mar-20 23:33N 54°36' E 012°15'8 8.0
2017-Mar-20 22:33N 54°41' E 012°26'50 9.6
2017-Mar-20 17:19N 55°00' E 013°47'810.5
2017-Mar-20 16:33N 55°03' E 013°60'1110.7
2017-Mar-20 15:33N 55°10' E 014°14'1110.5
2017-Mar-20 14:33N 55°18' E 014°25'1010.4
2017-Mar-20 13:33N 55°26' E 014°38'1010.1
2017-Mar-20 12:33N 55°26' E 014°55'10 9.8
2017-Mar-20 11:33N 55°27' E 015°13'1010.0
2017-Mar-20 10:33N 55°29' E 015°30'1010.1
2017-Mar-20 09:33N 55°29' E 015°48'10 9.9
2017-Mar-20 08:33N 55°30' E 016°05'10 9.9
2017-Mar-20 07:33N 55°31' E 016°23'  
Track history (hours):
 
Tides and Currents Weather Stations Pressure Air Temp Water Temp Dewpoint Dewpoint Depression Visibility Wind Speed Wind Dir Waves Ship Positions

Blue Bay

Last reported at 2017-Mar-27 11:33 UTC. Time now 2017-Mar-27 12:30 UTC.
Position N 59°53' E 010°45'.

Length 89 m; draft 4.8 m.

Type: Cargo ship. MMSI: 304519000.

Date/timePositionNaut miles runAvg speedWind from/ knotsBaromVisibWave heightAir tempDewpointWater temp
2017-Mar-27 11:33N 59°53' E 010°45'0 0.0
2017-Mar-27 10:33N 59°53' E 010°45'0 0.0
2017-Mar-27 09:33N 59°53' E 010°45'0 0.0
2017-Mar-27 08:33N 59°53' E 010°45'0 0.0
2017-Mar-27 07:33N 59°53' E 010°45'0 0.0
2017-Mar-27 06:33N 59°53' E 010°45'0 0.0
2017-Mar-27 05:33N 59°53' E 010°45'0 0.0
2017-Mar-27 04:33N 59°53' E 010°45'1 0.9
2017-Mar-27 03:33N 59°53' E 010°44'9 9.1
2017-Mar-27 02:34N 59°45' E 010°35'1110.7
2017-Mar-27 01:34N 59°35' E 010°38'1110.6
2017-Mar-27 00:34N 59°24' E 010°34'1111.0
2017-Mar-26 23:33N 59°13' E 010°38'1010.1
2017-Mar-26 22:34N 59°03' E 010°34'1010.2
2017-Mar-26 21:34N 58°54' E 010°25'1010.3
2017-Mar-26 20:33N 58°45' E 010°15'1010.3
2017-Mar-26 19:33N 58°37' E 010°04'1110.6
2017-Mar-26 18:33N 58°28' E 009°54'1110.5
2017-Mar-26 17:33N 58°19' E 009°43'1110.5
2017-Mar-26 16:33N 58°10' E 009°32'1110.6
2017-Mar-26 15:33N 58°01' E 009°22'1110.6
2017-Mar-26 14:33N 57°52' E 009°12'15610.4
2017-Mar-25 23:33N 55°39' E 006°44'1010.2
2017-Mar-25 22:32N 55°30' E 006°34'1110.2
2017-Mar-25 21:29N 55°21' E 006°25'10010.1
2017-Mar-25 11:32N 53°53' E 005°00'9 9.6
2017-Mar-25 10:34N 53°45' E 004°54'9 9.5
2017-Mar-25 09:34N 53°36' E 004°49'9 9.2
2017-Mar-25 08:34N 53°27' E 004°43'10 9.5
2017-Mar-25 07:33N 53°18' E 004°36'10 9.8
2017-Mar-25 06:33N 53°10' E 004°29'1010.2
2017-Mar-25 05:34N 53°01' E 004°22'1111.0
2017-Mar-25 04:33N 52°50' E 004°15'1111.2
2017-Mar-25 03:33N 52°41' E 004°05'1111.5
2017-Mar-25 02:34N 52°31' E 003°56'1211.8
2017-Mar-25 01:33N 52°19' E 003°52'1211.6
2017-Mar-25 00:34N 52°08' E 003°56'9 9.3
2017-Mar-24 23:34N 51°60' E 004°03'1010.2
2017-Mar-24 22:33N 51°54' E 004°16'1 0.7
2017-Mar-24 21:33N 51°53' E 004°16'0 0.0
2017-Mar-24 20:33N 51°54' E 004°16'0 0.0
2017-Mar-24 19:33N 51°53' E 004°16'0 0.0
2017-Mar-24 18:33N 51°54' E 004°16'0 0.0
2017-Mar-24 17:33N 51°54' E 004°16'0 0.0
2017-Mar-24 16:33N 51°54' E 004°16'0 0.0
2017-Mar-24 15:29N 51°54' E 004°16'4 4.2
2017-Mar-24 14:33N 51°54' E 004°23'1 1.5
2017-Mar-24 13:33N 51°54' E 004°25'0 0.0
2017-Mar-24 12:33N 51°54' E 004°25'0 0.0
2017-Mar-24 11:33N 51°54' E 004°25'0 0.0
2017-Mar-24 10:33N 51°54' E 004°25'0 0.0
2017-Mar-24 09:33N 51°54' E 004°25'0 0.0
2017-Mar-24 08:33N 51°54' E 004°25'0 0.0
2017-Mar-24 07:33N 51°54' E 004°25'0 0.0
2017-Mar-24 06:33N 51°54' E 004°25'0 0.0
2017-Mar-24 05:33N 51°54' E 004°25'0 0.0
2017-Mar-24 04:33N 51°54' E 004°25'0 0.0
2017-Mar-24 03:33N 51°54' E 004°25'0 0.0
2017-Mar-24 02:33N 51°54' E 004°25'0 0.0
2017-Mar-24 01:33N 51°54' E 004°25'0 0.0
2017-Mar-24 00:33N 51°54' E 004°25'0 0.0
2017-Mar-23 23:33N 51°54' E 004°25'0 0.0
2017-Mar-23 22:33N 51°54' E 004°25'0 0.0
2017-Mar-23 21:33N 51°54' E 004°25'0 0.0
2017-Mar-23 20:33N 51°54' E 004°25'0 0.0
2017-Mar-23 19:33N 51°54' E 004°25'0 0.0
2017-Mar-23 18:33N 51°54' E 004°25'0 0.0
2017-Mar-23 17:33N 51°54' E 004°25'0 0.0
2017-Mar-23 16:33N 51°54' E 004°25'0 0.0
2017-Mar-23 15:33N 51°54' E 004°25'0 0.0
2017-Mar-23 14:33N 51°54' E 004°25'0 0.0
2017-Mar-23 13:33N 51°54' E 004°25'0 0.0
2017-Mar-23 12:33N 51°54' E 004°25'0 0.0
2017-Mar-23 11:33N 51°54' E 004°25'0 0.0
2017-Mar-23 10:33N 51°54' E 004°25'0 0.0
2017-Mar-23 09:33N 51°54' E 004°25'0 0.0
2017-Mar-23 08:33N 51°54' E 004°25'0 0.0
2017-Mar-23 07:33N 51°54' E 004°25'0 0.0
2017-Mar-23 06:33N 51°54' E 004°25'0 0.0
2017-Mar-23 05:33N 51°54' E 004°25'0 0.0
2017-Mar-23 04:33N 51°54' E 004°25'0 0.0
2017-Mar-23 03:33N 51°54' E 004°25'0 0.0
2017-Mar-23 02:33N 51°54' E 004°25'0 0.1
2017-Mar-23 01:33N 51°54' E 004°25'7 7.2
2017-Mar-23 00:33N 51°56' E 004°13'8 7.8
2017-Mar-22 23:33N 51°60' E 004°03'9 8.6
2017-Mar-22 22:33N 52°03' E 003°50'9 9.0
2017-Mar-22 21:33N 52°12' E 003°47'9 9.4
2017-Mar-22 20:33N 52°21' E 003°48'13 9.9
2017-Mar-22 19:12N 52°34' E 003°52'910.3
2017-Mar-22 18:18N 52°43' E 003°55'810.8
2017-Mar-22 17:33N 52°51' E 003°58'1110.3
2017-Mar-22 16:29N 53°01' E 004°07'143 8.4
2017-Mar-21 23:26N 54°01' E 007°45'7 8.0
2017-Mar-21 22:33N 54°01' E 007°57'8 8.3
2017-Mar-21 21:33N 54°01' E 008°11'1010.0
2017-Mar-21 20:33N 53°59' E 008°28'1010.3
2017-Mar-21 19:33N 53°53' E 008°42'9 8.8
2017-Mar-21 18:34N 53°51' E 008°57'8 7.7
2017-Mar-21 17:33N 53°54' E 009°09'4 3.6
2017-Mar-21 16:33N 53°56' E 009°13'7 7.1
2017-Mar-21 15:33N 54°03' E 009°18'46 5.8
2017-Mar-21 07:32N 54°31' E 010°21'9 9.5
2017-Mar-21 06:33N 54°34' E 010°36'10 9.7
2017-Mar-21 05:33N 54°35' E 010°52'10 9.5
2017-Mar-21 04:33N 54°36' E 011°09'9 9.4
2017-Mar-21 03:33N 54°32' E 011°24'10 9.5
2017-Mar-21 02:33N 54°29' E 011°39'9 9.2
2017-Mar-21 01:33N 54°27' E 011°54'9 8.6
2017-Mar-21 00:33N 54°28' E 012°09'9 9.0
2017-Mar-20 23:33N 54°36' E 012°15'8 8.0
2017-Mar-20 22:33N 54°41' E 012°26'50 9.6
2017-Mar-20 17:19N 55°00' E 013°47'810.5
2017-Mar-20 16:33N 55°03' E 013°60'1110.7
2017-Mar-20 15:33N 55°10' E 014°14'1110.5
2017-Mar-20 14:33N 55°18' E 014°25'1010.4
2017-Mar-20 13:33N 55°26' E 014°38'1010.1
2017-Mar-20 12:33N 55°26' E 014°55'10 9.8
2017-Mar-20 11:33N 55°27' E 015°13'1010.0
2017-Mar-20 10:33N 55°29' E 015°30'1010.1
2017-Mar-20 09:33N 55°29' E 015°48'10 9.9
2017-Mar-20 08:33N 55°30' E 016°05'10 9.9
2017-Mar-20 07:33N 55°31' E 016°23'  

Dump ship's entire track history